sensor_id;sensor_type;location;lat;lon;timestamp;temperature;humidity
68128;SHT30;54931;52.098;21.006;2024-02-21T00:00:40;4.09;85.17
68128;SHT30;54931;52.098;21.006;2024-02-21T00:03:29;4.11;85.10
68128;SHT30;54931;52.098;21.006;2024-02-21T00:05:56;4.10;84.95
68128;SHT30;54931;52.098;21.006;2024-02-21T00:08:24;4.11;85.16
68128;SHT30;54931;52.098;21.006;2024-02-21T00:10:52;4.12;85.21
68128;SHT30;54931;52.098;21.006;2024-02-21T00:13:20;4.15;85.15
68128;SHT30;54931;52.098;21.006;2024-02-21T00:15:47;4.17;85.10
68128;SHT30;54931;52.098;21.006;2024-02-21T00:18:15;4.18;85.02
68128;SHT30;54931;52.098;21.006;2024-02-21T00:20:43;4.20;85.10
68128;SHT30;54931;52.098;21.006;2024-02-21T00:23:11;4.23;85.05
68128;SHT30;54931;52.098;21.006;2024-02-21T00:25:38;4.24;85.00
68128;SHT30;54931;52.098;21.006;2024-02-21T00:28:06;4.27;85.00
68128;SHT30;54931;52.098;21.006;2024-02-21T00:30:34;4.28;85.00
68128;SHT30;54931;52.098;21.006;2024-02-21T00:33:01;4.30;85.01
68128;SHT30;54931;52.098;21.006;2024-02-21T00:35:29;4.32;84.94
68128;SHT30;54931;52.098;21.006;2024-02-21T00:37:57;4.33;84.92
68128;SHT30;54931;52.098;21.006;2024-02-21T00:40:26;4.35;84.95
68128;SHT30;54931;52.098;21.006;2024-02-21T00:42:54;4.39;85.00
68128;SHT30;54931;52.098;21.006;2024-02-21T00:45:22;4.41;84.99
68128;SHT30;54931;52.098;21.006;2024-02-21T00:47:50;4.42;84.91
68128;SHT30;54931;52.098;21.006;2024-02-21T00:50:18;4.45;84.91
68128;SHT30;54931;52.098;21.006;2024-02-21T00:52:46;4.45;84.93
68128;SHT30;54931;52.098;21.006;2024-02-21T00:55:13;4.48;84.91
68128;SHT30;54931;52.098;21.006;2024-02-21T00:57:41;4.50;84.94
68128;SHT30;54931;52.098;21.006;2024-02-21T01:00:10;4.51;84.97
68128;SHT30;54931;52.098;21.006;2024-02-21T01:02:39;4.55;85.11
68128;SHT30;54931;52.098;21.006;2024-02-21T01:05:07;4.57;85.18
68128;SHT30;54931;52.098;21.006;2024-02-21T01:07:35;4.59;85.06
68128;SHT30;54931;52.098;21.006;2024-02-21T01:10:03;4.59;85.00
68128;SHT30;54931;52.098;21.006;2024-02-21T01:12:31;4.60;85.07
68128;SHT30;54931;52.098;21.006;2024-02-21T01:14:59;4.60;85.05
68128;SHT30;54931;52.098;21.006;2024-02-21T01:17:27;4.60;85.07
68128;SHT30;54931;52.098;21.006;2024-02-21T01:19:55;4.61;85.07
68128;SHT30;54931;52.098;21.006;2024-02-21T01:22:23;4.61;85.13
68128;SHT30;54931;52.098;21.006;2024-02-21T01:24:50;4.61;85.20
68128;SHT30;54931;52.098;21.006;2024-02-21T01:27:18;4.62;85.29
68128;SHT30;54931;52.098;21.006;2024-02-21T01:29:46;4.62;85.37
68128;SHT30;54931;52.098;21.006;2024-02-21T01:32:16;4.63;85.38
68128;SHT30;54931;52.098;21.006;2024-02-21T01:34:44;4.62;85.43
68128;SHT30;54931;52.098;21.006;2024-02-21T01:37:11;4.64;85.57
68128;SHT30;54931;52.098;21.006;2024-02-21T01:39:39;4.64;85.60
68128;SHT30;54931;52.098;21.006;2024-02-21T01:42:07;4.65;85.60
68128;SHT30;54931;52.098;21.006;2024-02-21T01:44:36;4.66;85.60
68128;SHT30;54931;52.098;21.006;2024-02-21T01:47:05;4.67;85.69
68128;SHT30;54931;52.098;21.006;2024-02-21T01:49:33;4.67;85.71
68128;SHT30;54931;52.098;21.006;2024-02-21T01:52:01;4.68;85.74
68128;SHT30;54931;52.098;21.006;2024-02-21T01:54:31;4.68;85.86
68128;SHT30;54931;52.098;21.006;2024-02-21T01:56:59;4.70;85.93
68128;SHT30;54931;52.098;21.006;2024-02-21T01:59:28;4.70;85.85
68128;SHT30;54931;52.098;21.006;2024-02-21T02:01:58;4.72;85.90
68128;SHT30;54931;52.098;21.006;2024-02-21T02:04:27;4.72;85.93
68128;SHT30;54931;52.098;21.006;2024-02-21T02:06:56;4.74;85.90
68128;SHT30;54931;52.098;21.006;2024-02-21T02:09:29;4.75;85.94
68128;SHT30;54931;52.098;21.006;2024-02-21T02:11:57;4.76;86.06
68128;SHT30;54931;52.098;21.006;2024-02-21T02:14:26;4.78;86.15
68128;SHT30;54931;52.098;21.006;2024-02-21T02:16:54;4.80;86.21
68128;SHT30;54931;52.098;21.006;2024-02-21T02:19:21;4.83;86.13
68128;SHT30;54931;52.098;21.006;2024-02-21T02:21:49;4.84;86.17
68128;SHT30;54931;52.098;21.006;2024-02-21T02:24:23;4.86;86.24
68128;SHT30;54931;52.098;21.006;2024-02-21T02:26:55;4.89;86.25
68128;SHT30;54931;52.098;21.006;2024-02-21T02:29:23;4.90;86.16
68128;SHT30;54931;52.098;21.006;2024-02-21T02:31:51;4.91;86.01
68128;SHT30;54931;52.098;21.006;2024-02-21T02:34:18;4.91;86.10
68128;SHT30;54931;52.098;21.006;2024-02-21T02:36:46;4.91;86.16
68128;SHT30;54931;52.098;21.006;2024-02-21T02:39:16;4.92;86.07
68128;SHT30;54931;52.098;21.006;2024-02-21T02:41:44;4.92;86.08
68128;SHT30;54931;52.098;21.006;2024-02-21T02:44:12;4.91;86.07
68128;SHT30;54931;52.098;21.006;2024-02-21T02:46:40;4.91;86.04
68128;SHT30;54931;52.098;21.006;2024-02-21T02:49:08;4.90;85.90
68128;SHT30;54931;52.098;21.006;2024-02-21T02:51:36;4.88;85.90
68128;SHT30;54931;52.098;21.006;2024-02-21T02:54:09;4.87;86.11
68128;SHT30;54931;52.098;21.006;2024-02-21T02:56:38;4.89;86.21
68128;SHT30;54931;52.098;21.006;2024-02-21T02:59:06;4.88;86.07
68128;SHT30;54931;52.098;21.006;2024-02-21T03:01:34;4.87;86.00
68128;SHT30;54931;52.098;21.006;2024-02-21T03:04:03;4.86;86.05
68128;SHT30;54931;52.098;21.006;2024-02-21T03:06:31;4.85;86.14
68128;SHT30;54931;52.098;21.006;2024-02-21T03:08:59;4.86;86.23
68128;SHT30;54931;52.098;21.006;2024-02-21T03:11:27;4.86;86.30
68128;SHT30;54931;52.098;21.006;2024-02-21T03:13:56;4.87;86.33
68128;SHT30;54931;52.098;21.006;2024-02-21T03:16:24;4.88;86.48
68128;SHT30;54931;52.098;21.006;2024-02-21T03:18:52;4.91;86.67
68128;SHT30;54931;52.098;21.006;2024-02-21T03:21:20;4.93;86.56
68128;SHT30;54931;52.098;21.006;2024-02-21T03:23:48;4.92;86.58
68128;SHT30;54931;52.098;21.006;2024-02-21T03:26:16;4.92;86.51
68128;SHT30;54931;52.098;21.006;2024-02-21T03:28:44;4.93;86.68
68128;SHT30;54931;52.098;21.006;2024-02-21T03:31:15;4.92;86.41
68128;SHT30;54931;52.098;21.006;2024-02-21T03:33:43;4.88;86.29
68128;SHT30;54931;52.098;21.006;2024-02-21T03:36:14;4.84;86.25
68128;SHT30;54931;52.098;21.006;2024-02-21T03:38:42;4.80;86.30
68128;SHT30;54931;52.098;21.006;2024-02-21T03:41:10;4.78;86.48
68128;SHT30;54931;52.098;21.006;2024-02-21T03:43:38;4.76;86.48
68128;SHT30;54931;52.098;21.006;2024-02-21T03:46:06;4.75;86.46
68128;SHT30;54931;52.098;21.006;2024-02-21T03:48:35;4.75;86.54
68128;SHT30;54931;52.098;21.006;2024-02-21T03:51:04;4.74;86.58
68128;SHT30;54931;52.098;21.006;2024-02-21T03:53:32;4.74;86.68
68128;SHT30;54931;52.098;21.006;2024-02-21T03:56:01;4.73;86.61
68128;SHT30;54931;52.098;21.006;2024-02-21T03:58:31;4.71;86.49
68128;SHT30;54931;52.098;21.006;2024-02-21T04:01:02;4.70;86.53
68128;SHT30;54931;52.098;21.006;2024-02-21T04:03:30;4.70;86.56
68128;SHT30;54931;52.098;21.006;2024-02-21T04:06:00;4.68;86.55
68128;SHT30;54931;52.098;21.006;2024-02-21T04:08:28;4.68;86.59
68128;SHT30;54931;52.098;21.006;2024-02-21T04:10:56;4.69;86.60
68128;SHT30;54931;52.098;21.006;2024-02-21T04:13:43;4.69;86.62
68128;SHT30;54931;52.098;21.006;2024-02-21T04:16:17;4.70;86.58
68128;SHT30;54931;52.098;21.006;2024-02-21T04:19:05;4.70;86.52
68128;SHT30;54931;52.098;21.006;2024-02-21T04:21:34;4.68;86.49
68128;SHT30;54931;52.098;21.006;2024-02-21T04:24:03;4.67;86.49
68128;SHT30;54931;52.098;21.006;2024-02-21T04:26:32;4.66;86.50
68128;SHT30;54931;52.098;21.006;2024-02-21T04:29:00;4.66;86.55
68128;SHT30;54931;52.098;21.006;2024-02-21T04:31:29;4.67;86.50
68128;SHT30;54931;52.098;21.006;2024-02-21T04:33:59;4.66;86.50
68128;SHT30;54931;52.098;21.006;2024-02-21T04:36:27;4.66;86.52
68128;SHT30;54931;52.098;21.006;2024-02-21T04:38:54;4.66;86.50
68128;SHT30;54931;52.098;21.006;2024-02-21T04:41:22;4.67;86.55
68128;SHT30;54931;52.098;21.006;2024-02-21T04:43:50;4.66;86.51
68128;SHT30;54931;52.098;21.006;2024-02-21T04:46:18;4.64;86.49
68128;SHT30;54931;52.098;21.006;2024-02-21T04:48:46;4.62;86.48
68128;SHT30;54931;52.098;21.006;2024-02-21T04:51:13;4.60;86.51
68128;SHT30;54931;52.098;21.006;2024-02-21T04:53:41;4.58;86.59
68128;SHT30;54931;52.098;21.006;2024-02-21T04:56:09;4.57;86.53
68128;SHT30;54931;52.098;21.006;2024-02-21T04:58:38;4.55;86.58
68128;SHT30;54931;52.098;21.006;2024-02-21T05:01:06;4.54;86.59
68128;SHT30;54931;52.098;21.006;2024-02-21T05:03:34;4.54;86.62
68128;SHT30;54931;52.098;21.006;2024-02-21T05:06:02;4.55;86.64
68128;SHT30;54931;52.098;21.006;2024-02-21T05:08:31;4.54;86.62
68128;SHT30;54931;52.098;21.006;2024-02-21T05:10:58;4.54;86.62
68128;SHT30;54931;52.098;21.006;2024-02-21T05:13:26;4.54;86.61
68128;SHT30;54931;52.098;21.006;2024-02-21T05:15:54;4.55;86.68
68128;SHT30;54931;52.098;21.006;2024-02-21T05:18:22;4.55;86.66
68128;SHT30;54931;52.098;21.006;2024-02-21T05:20:50;4.56;86.65
68128;SHT30;54931;52.098;21.006;2024-02-21T05:23:17;4.57;86.70
68128;SHT30;54931;52.098;21.006;2024-02-21T05:25:45;4.57;86.68
68128;SHT30;54931;52.098;21.006;2024-02-21T05:28:13;4.57;86.64
68128;SHT30;54931;52.098;21.006;2024-02-21T05:30:41;4.58;86.60
68128;SHT30;54931;52.098;21.006;2024-02-21T05:33:10;4.57;86.61
68128;SHT30;54931;52.098;21.006;2024-02-21T05:35:38;4.58;86.60
68128;SHT30;54931;52.098;21.006;2024-02-21T05:38:06;4.57;86.62
68128;SHT30;54931;52.098;21.006;2024-02-21T05:40:39;4.57;86.67
68128;SHT30;54931;52.098;21.006;2024-02-21T05:43:07;4.56;86.67
68128;SHT30;54931;52.098;21.006;2024-02-21T05:45:36;4.57;86.69
68128;SHT30;54931;52.098;21.006;2024-02-21T05:48:04;4.57;86.80
68128;SHT30;54931;52.098;21.006;2024-02-21T05:50:33;4.57;86.79
68128;SHT30;54931;52.098;21.006;2024-02-21T05:53:00;4.58;86.80
68128;SHT30;54931;52.098;21.006;2024-02-21T05:55:28;4.59;86.80
68128;SHT30;54931;52.098;21.006;2024-02-21T05:57:56;4.60;86.86
68128;SHT30;54931;52.098;21.006;2024-02-21T06:00:24;4.62;86.90
68128;SHT30;54931;52.098;21.006;2024-02-21T06:02:52;4.62;86.90
68128;SHT30;54931;52.098;21.006;2024-02-21T06:05:20;4.65;86.90
68128;SHT30;54931;52.098;21.006;2024-02-21T06:07:49;4.67;86.93
68128;SHT30;54931;52.098;21.006;2024-02-21T06:10:17;4.68;86.99
68128;SHT30;54931;52.098;21.006;2024-02-21T06:12:45;4.72;87.12
68128;SHT30;54931;52.098;21.006;2024-02-21T06:15:13;4.75;87.10
68128;SHT30;54931;52.098;21.006;2024-02-21T06:17:41;4.80;87.10
68128;SHT30;54931;52.098;21.006;2024-02-21T06:20:08;4.85;87.17
68128;SHT30;54931;52.098;21.006;2024-02-21T06:22:37;4.92;87.17
68128;SHT30;54931;52.098;21.006;2024-02-21T06:25:05;4.99;87.11
68128;SHT30;54931;52.098;21.006;2024-02-21T06:27:33;5.06;87.10
68128;SHT30;54931;52.098;21.006;2024-02-21T06:30:00;5.13;87.10
68128;SHT30;54931;52.098;21.006;2024-02-21T06:32:30;5.21;87.05
68128;SHT30;54931;52.098;21.006;2024-02-21T06:34:58;5.30;87.05
68128;SHT30;54931;52.098;21.006;2024-02-21T06:37:25;5.37;86.93
68128;SHT30;54931;52.098;21.006;2024-02-21T06:39:53;5.44;86.88
68128;SHT30;54931;52.098;21.006;2024-02-21T06:42:21;5.51;86.76
68128;SHT30;54931;52.098;21.006;2024-02-21T06:44:51;5.58;86.71
68128;SHT30;54931;52.098;21.006;2024-02-21T06:47:19;5.65;86.74
68128;SHT30;54931;52.098;21.006;2024-02-21T06:49:50;5.74;86.75
68128;SHT30;54931;52.098;21.006;2024-02-21T06:52:19;5.84;86.70
68128;SHT30;54931;52.098;21.006;2024-02-21T06:54:51;5.93;86.65
68128;SHT30;54931;52.098;21.006;2024-02-21T06:57:18;6.02;86.47
68128;SHT30;54931;52.098;21.006;2024-02-21T06:59:46;6.07;86.36
68128;SHT30;54931;52.098;21.006;2024-02-21T07:02:14;6.12;86.24
68128;SHT30;54931;52.098;21.006;2024-02-21T07:04:42;6.14;86.07
68128;SHT30;54931;52.098;21.006;2024-02-21T07:07:10;6.19;86.05
68128;SHT30;54931;52.098;21.006;2024-02-21T07:09:38;6.25;86.03
68128;SHT30;54931;52.098;21.006;2024-02-21T07:12:07;6.28;85.81
68128;SHT30;54931;52.098;21.006;2024-02-21T07:14:36;6.32;85.83
68128;SHT30;54931;52.098;21.006;2024-02-21T07:17:04;6.36;85.83
68128;SHT30;54931;52.098;21.006;2024-02-21T07:19:32;6.42;85.76
68128;SHT30;54931;52.098;21.006;2024-02-21T07:22:02;6.48;85.77
68128;SHT30;54931;52.098;21.006;2024-02-21T07:24:30;6.52;85.46
68128;SHT30;54931;52.098;21.006;2024-02-21T07:26:58;6.57;85.55
68128;SHT30;54931;52.098;21.006;2024-02-21T07:29:31;6.64;85.60
68128;SHT30;54931;52.098;21.006;2024-02-21T07:31:59;6.70;85.58
68128;SHT30;54931;52.098;21.006;2024-02-21T07:34:27;6.75;85.22
68128;SHT30;54931;52.098;21.006;2024-02-21T07:36:55;6.78;85.06
68128;SHT30;54931;52.098;21.006;2024-02-21T07:39:23;6.83;85.09
68128;SHT30;54931;52.098;21.006;2024-02-21T07:41:51;6.86;84.80
68128;SHT30;54931;52.098;21.006;2024-02-21T07:44:19;6.87;84.70
68128;SHT30;54931;52.098;21.006;2024-02-21T07:46:47;6.87;84.56
68128;SHT30;54931;52.098;21.006;2024-02-21T07:49:14;6.88;84.49
68128;SHT30;54931;52.098;21.006;2024-02-21T07:51:43;6.88;84.36
68128;SHT30;54931;52.098;21.006;2024-02-21T07:54:11;6.88;84.32
68128;SHT30;54931;52.098;21.006;2024-02-21T07:56:39;6.89;84.23
68128;SHT30;54931;52.098;21.006;2024-02-21T07:59:07;6.91;84.19
68128;SHT30;54931;52.098;21.006;2024-02-21T08:01:35;6.95;84.34
68128;SHT30;54931;52.098;21.006;2024-02-21T08:04:03;7.01;84.23
68128;SHT30;54931;52.098;21.006;2024-02-21T08:06:32;7.05;83.69
68128;SHT30;54931;52.098;21.006;2024-02-21T08:09:00;7.11;83.54
68128;SHT30;54931;52.098;21.006;2024-02-21T08:11:28;7.23;83.97
68128;SHT30;54931;52.098;21.006;2024-02-21T08:13:56;7.34;83.23
68128;SHT30;54931;52.098;21.006;2024-02-21T08:16:25;7.40;82.71
68128;SHT30;54931;52.098;21.006;2024-02-21T08:18:54;7.50;82.79
68128;SHT30;54931;52.098;21.006;2024-02-21T08:21:22;7.60;82.77
68128;SHT30;54931;52.098;21.006;2024-02-21T08:23:49;7.72;82.75
68128;SHT30;54931;52.098;21.006;2024-02-21T08:26:18;7.83;82.08
68128;SHT30;54931;52.098;21.006;2024-02-21T08:28:46;7.88;82.02
68128;SHT30;54931;52.098;21.006;2024-02-21T08:31:21;7.92;81.21
68128;SHT30;54931;52.098;21.006;2024-02-21T08:33:50;7.91;80.87
68128;SHT30;54931;52.098;21.006;2024-02-21T08:36:18;7.93;81.06
68128;SHT30;54931;52.098;21.006;2024-02-21T08:38:47;7.97;81.10
68128;SHT30;54931;52.098;21.006;2024-02-21T08:41:14;8.01;80.83
68128;SHT30;54931;52.098;21.006;2024-02-21T08:43:43;8.11;81.02
68128;SHT30;54931;52.098;21.006;2024-02-21T08:46:11;8.21;80.76
68128;SHT30;54931;52.098;21.006;2024-02-21T08:48:39;8.29;80.27
68128;SHT30;54931;52.098;21.006;2024-02-21T08:51:08;8.40;80.20
68128;SHT30;54931;52.098;21.006;2024-02-21T08:53:35;8.50;79.52
68128;SHT30;54931;52.098;21.006;2024-02-21T08:56:04;8.69;79.79
68128;SHT30;54931;52.098;21.006;2024-02-21T08:58:35;8.90;79.44
68128;SHT30;54931;52.098;21.006;2024-02-21T09:01:04;9.00;78.73
68128;SHT30;54931;52.098;21.006;2024-02-21T09:03:32;8.99;77.70
68128;SHT30;54931;52.098;21.006;2024-02-21T09:06:02;9.05;78.55
68128;SHT30;54931;52.098;21.006;2024-02-21T09:08:34;9.11;77.77
68128;SHT30;54931;52.098;21.006;2024-02-21T09:11:02;9.18;77.82
68128;SHT30;54931;52.098;21.006;2024-02-21T09:13:30;9.30;77.78
68128;SHT30;54931;52.098;21.006;2024-02-21T09:15:58;9.35;76.84
68128;SHT30;54931;52.098;21.006;2024-02-21T09:18:26;9.33;76.88
68128;SHT30;54931;52.098;21.006;2024-02-21T09:20:54;9.35;76.67
68128;SHT30;54931;52.098;21.006;2024-02-21T09:23:26;9.39;76.67
68128;SHT30;54931;52.098;21.006;2024-02-21T09:25:54;9.41;76.13
68128;SHT30;54931;52.098;21.006;2024-02-21T09:28:22;9.41;75.89
68128;SHT30;54931;52.098;21.006;2024-02-21T09:30:50;9.46;76.13
68128;SHT30;54931;52.098;21.006;2024-02-21T09:33:18;9.51;76.24
68128;SHT30;54931;52.098;21.006;2024-02-21T09:35:46;9.48;75.80
68128;SHT30;54931;52.098;21.006;2024-02-21T09:38:15;9.39;75.95
68128;SHT30;54931;52.098;21.006;2024-02-21T09:40:44;9.31;76.62
68128;SHT30;54931;52.098;21.006;2024-02-21T09:43:12;9.23;76.89
68128;SHT30;54931;52.098;21.006;2024-02-21T09:45:45;9.18;77.24
68128;SHT30;54931;52.098;21.006;2024-02-21T09:48:30;9.18;77.38
68128;SHT30;54931;52.098;21.006;2024-02-21T09:51:19;9.14;76.90
68128;SHT30;54931;52.098;21.006;2024-02-21T09:53:49;9.10;76.38
68128;SHT30;54931;52.098;21.006;2024-02-21T09:56:21;9.08;76.63
68128;SHT30;54931;52.098;21.006;2024-02-21T09:58:49;9.07;76.55
68128;SHT30;54931;52.098;21.006;2024-02-21T10:01:17;9.12;77.11
68128;SHT30;54931;52.098;21.006;2024-02-21T10:03:44;9.18;76.60
68128;SHT30;54931;52.098;21.006;2024-02-21T10:06:12;9.19;76.59
68128;SHT30;54931;52.098;21.006;2024-02-21T10:08:40;9.26;76.90
68128;SHT30;54931;52.098;21.006;2024-02-21T10:11:08;9.36;77.09
68128;SHT30;54931;52.098;21.006;2024-02-21T10:13:37;9.43;76.79
68128;SHT30;54931;52.098;21.006;2024-02-21T10:16:06;9.41;76.15
68128;SHT30;54931;52.098;21.006;2024-02-21T10:18:35;9.44;76.46
68128;SHT30;54931;52.098;21.006;2024-02-21T10:21:04;9.47;76.42
68128;SHT30;54931;52.098;21.006;2024-02-21T10:23:43;9.47;76.02
68128;SHT30;54931;52.098;21.006;2024-02-21T10:26:16;9.39;75.55
68128;SHT30;54931;52.098;21.006;2024-02-21T10:28:47;9.38;76.09
68128;SHT30;54931;52.098;21.006;2024-02-21T10:31:22;9.38;75.68
68128;SHT30;54931;52.098;21.006;2024-02-21T10:36:30;9.43;75.90
68128;SHT30;54931;52.098;21.006;2024-02-21T10:38:58;9.41;76.02
68128;SHT30;54931;52.098;21.006;2024-02-21T10:41:25;9.39;76.10
68128;SHT30;54931;52.098;21.006;2024-02-21T10:43:55;9.38;76.62
68128;SHT30;54931;52.098;21.006;2024-02-21T10:46:24;9.36;76.69
68128;SHT30;54931;52.098;21.006;2024-02-21T10:48:59;9.32;76.28
68128;SHT30;54931;52.098;21.006;2024-02-21T10:51:39;9.29;76.32
68128;SHT30;54931;52.098;21.006;2024-02-21T10:57:10;9.24;76.84
68128;SHT30;54931;52.098;21.006;2024-02-21T10:59:41;9.27;76.92
68128;SHT30;54931;52.098;21.006;2024-02-21T11:02:12;9.32;76.89
68128;SHT30;54931;52.098;21.006;2024-02-21T11:04:41;9.34;76.82
68128;SHT30;54931;52.098;21.006;2024-02-21T11:07:11;9.33;76.90
68128;SHT30;54931;52.098;21.006;2024-02-21T11:09:50;9.31;76.75
68128;SHT30;54931;52.098;21.006;2024-02-21T11:12:24;9.29;77.08
68128;SHT30;54931;52.098;21.006;2024-02-21T11:15:07;9.29;77.01
68128;SHT30;54931;52.098;21.006;2024-02-21T11:17:35;9.25;76.85
68128;SHT30;54931;52.098;21.006;2024-02-21T11:20:13;9.17;76.39
68128;SHT30;54931;52.098;21.006;2024-02-21T11:22:42;9.15;76.87
68128;SHT30;54931;52.098;21.006;2024-02-21T11:25:10;9.19;77.38
68128;SHT30;54931;52.098;21.006;2024-02-21T11:27:38;9.20;77.43
68128;SHT30;54931;52.098;21.006;2024-02-21T11:30:13;9.17;77.64
68128;SHT30;54931;52.098;21.006;2024-02-21T11:32:49;9.14;77.64
68128;SHT30;54931;52.098;21.006;2024-02-21T11:35:20;9.07;77.95
68128;SHT30;54931;52.098;21.006;2024-02-21T11:37:48;8.97;77.99
68128;SHT30;54931;52.098;21.006;2024-02-21T11:40:16;8.92;78.54
68128;SHT30;54931;52.098;21.006;2024-02-21T11:42:44;8.88;78.78
68128;SHT30;54931;52.098;21.006;2024-02-21T11:45:14;8.85;79.05
68128;SHT30;54931;52.098;21.006;2024-02-21T11:47:43;8.81;79.28
68128;SHT30;54931;52.098;21.006;2024-02-21T11:50:11;8.79;79.52
68128;SHT30;54931;52.098;21.006;2024-02-21T11:52:39;8.71;79.52
68128;SHT30;54931;52.098;21.006;2024-02-21T11:55:07;8.65;79.82
68128;SHT30;54931;52.098;21.006;2024-02-21T11:57:36;8.59;80.08
68128;SHT30;54931;52.098;21.006;2024-02-21T12:00:17;8.53;80.23
68128;SHT30;54931;52.098;21.006;2024-02-21T12:02:51;8.44;80.31
68128;SHT30;54931;52.098;21.006;2024-02-21T12:05:19;8.39;80.46
68128;SHT30;54931;52.098;21.006;2024-02-21T12:07:47;8.32;80.73
68128;SHT30;54931;52.098;21.006;2024-02-21T12:10:15;8.24;80.92
68128;SHT30;54931;52.098;21.006;2024-02-21T12:12:44;8.18;81.22
68128;SHT30;54931;52.098;21.006;2024-02-21T12:15:12;8.15;81.46
68128;SHT30;54931;52.098;21.006;2024-02-21T12:17:40;8.15;81.58
68128;SHT30;54931;52.098;21.006;2024-02-21T12:20:09;8.15;81.84
68128;SHT30;54931;52.098;21.006;2024-02-21T12:22:38;8.16;82.05
68128;SHT30;54931;52.098;21.006;2024-02-21T12:25:19;8.17;82.14
68128;SHT30;54931;52.098;21.006;2024-02-21T12:27:50;8.15;82.08
68128;SHT30;54931;52.098;21.006;2024-02-21T12:30:18;8.13;82.10
68128;SHT30;54931;52.098;21.006;2024-02-21T12:32:47;8.13;82.31
68128;SHT30;54931;52.098;21.006;2024-02-21T12:35:15;8.11;82.30
68128;SHT30;54931;52.098;21.006;2024-02-21T12:37:45;8.10;82.46
68128;SHT30;54931;52.098;21.006;2024-02-21T12:40:13;8.10;82.53
68128;SHT30;54931;52.098;21.006;2024-02-21T12:42:42;8.08;82.65
68128;SHT30;54931;52.098;21.006;2024-02-21T12:45:10;8.07;82.73
68128;SHT30;54931;52.098;21.006;2024-02-21T12:47:39;8.08;82.78
68128;SHT30;54931;52.098;21.006;2024-02-21T12:50:07;8.09;83.00
68128;SHT30;54931;52.098;21.006;2024-02-21T12:52:36;8.08;83.01
68128;SHT30;54931;52.098;21.006;2024-02-21T12:55:04;8.09;83.07
68128;SHT30;54931;52.098;21.006;2024-02-21T12:57:33;8.07;83.14
68128;SHT30;54931;52.098;21.006;2024-02-21T13:00:01;8.05;83.17
68128;SHT30;54931;52.098;21.006;2024-02-21T13:02:29;8.05;83.35
68128;SHT30;54931;52.098;21.006;2024-02-21T13:04:57;8.03;83.37
68128;SHT30;54931;52.098;21.006;2024-02-21T13:07:25;8.01;83.42
68128;SHT30;54931;52.098;21.006;2024-02-21T13:09:53;7.99;83.44
68128;SHT30;54931;52.098;21.006;2024-02-21T13:12:21;8.00;83.54
68128;SHT30;54931;52.098;21.006;2024-02-21T13:14:49;7.99;83.63
68128;SHT30;54931;52.098;21.006;2024-02-21T13:17:17;7.99;83.67
68128;SHT30;54931;52.098;21.006;2024-02-21T13:19:45;7.98;83.74
68128;SHT30;54931;52.098;21.006;2024-02-21T13:22:13;7.99;83.73
68128;SHT30;54931;52.098;21.006;2024-02-21T13:24:41;7.99;83.83
68128;SHT30;54931;52.098;21.006;2024-02-21T13:27:09;7.98;83.81
68128;SHT30;54931;52.098;21.006;2024-02-21T13:29:37;7.98;83.83
68128;SHT30;54931;52.098;21.006;2024-02-21T13:32:05;7.95;83.90
68128;SHT30;54931;52.098;21.006;2024-02-21T13:34:34;7.92;83.95
68128;SHT30;54931;52.098;21.006;2024-02-21T13:37:02;7.94;84.03
68128;SHT30;54931;52.098;21.006;2024-02-21T13:39:31;7.92;84.02
68128;SHT30;54931;52.098;21.006;2024-02-21T13:42:02;7.90;84.08
68128;SHT30;54931;52.098;21.006;2024-02-21T13:44:32;7.89;84.15
68128;SHT30;54931;52.098;21.006;2024-02-21T13:47:01;7.88;84.22
68128;SHT30;54931;52.098;21.006;2024-02-21T13:49:30;7.85;84.21
68128;SHT30;54931;52.098;21.006;2024-02-21T13:51:58;7.82;84.28
68128;SHT30;54931;52.098;21.006;2024-02-21T13:54:27;7.79;84.33
68128;SHT30;54931;52.098;21.006;2024-02-21T13:56:55;7.75;84.43
68128;SHT30;54931;52.098;21.006;2024-02-21T13:59:23;7.73;84.56
68128;SHT30;54931;52.098;21.006;2024-02-21T14:01:53;7.69;84.76
68128;SHT30;54931;52.098;21.006;2024-02-21T14:04:21;7.69;84.76
68128;SHT30;54931;52.098;21.006;2024-02-21T14:06:49;7.69;84.99
68128;SHT30;54931;52.098;21.006;2024-02-21T14:09:18;7.69;85.20
68128;SHT30;54931;52.098;21.006;2024-02-21T14:11:46;7.68;85.16
68128;SHT30;54931;52.098;21.006;2024-02-21T14:14:14;7.66;85.11
68128;SHT30;54931;52.098;21.006;2024-02-21T14:16:42;7.65;85.15
68128;SHT30;54931;52.098;21.006;2024-02-21T14:19:11;7.62;85.04
68128;SHT30;54931;52.098;21.006;2024-02-21T14:21:39;7.61;85.03
68128;SHT30;54931;52.098;21.006;2024-02-21T14:24:07;7.57;85.17
68128;SHT30;54931;52.098;21.006;2024-02-21T14:26:36;7.57;85.03
68128;SHT30;54931;52.098;21.006;2024-02-21T14:29:04;7.56;85.10
68128;SHT30;54931;52.098;21.006;2024-02-21T14:31:32;7.56;85.08
68128;SHT30;54931;52.098;21.006;2024-02-21T14:34:01;7.55;85.09
68128;SHT30;54931;52.098;21.006;2024-02-21T14:36:30;7.57;85.13
68128;SHT30;54931;52.098;21.006;2024-02-21T14:38:57;7.58;85.19
68128;SHT30;54931;52.098;21.006;2024-02-21T14:41:26;7.60;85.19
68128;SHT30;54931;52.098;21.006;2024-02-21T14:43:55;7.64;85.19
68128;SHT30;54931;52.098;21.006;2024-02-21T14:46:27;7.68;85.19
68128;SHT30;54931;52.098;21.006;2024-02-21T14:48:57;7.69;85.17
68128;SHT30;54931;52.098;21.006;2024-02-21T14:51:25;7.70;85.04
68128;SHT30;54931;52.098;21.006;2024-02-21T14:53:53;7.70;85.03
68128;SHT30;54931;52.098;21.006;2024-02-21T14:56:22;7.72;85.06
68128;SHT30;54931;52.098;21.006;2024-02-21T14:58:51;7.71;85.01
68128;SHT30;54931;52.098;21.006;2024-02-21T15:01:19;7.69;84.87
68128;SHT30;54931;52.098;21.006;2024-02-21T15:03:46;7.68;84.87
68128;SHT30;54931;52.098;21.006;2024-02-21T15:06:14;7.65;84.86
68128;SHT30;54931;52.098;21.006;2024-02-21T15:08:43;7.62;84.81
68128;SHT30;54931;52.098;21.006;2024-02-21T15:11:11;7.59;84.80
68128;SHT30;54931;52.098;21.006;2024-02-21T15:13:39;7.55;84.80
68128;SHT30;54931;52.098;21.006;2024-02-21T15:16:07;7.52;84.84
68128;SHT30;54931;52.098;21.006;2024-02-21T15:18:35;7.48;84.88
68128;SHT30;54931;52.098;21.006;2024-02-21T15:21:05;7.46;84.90
68128;SHT30;54931;52.098;21.006;2024-02-21T15:23:34;7.44;84.94
68128;SHT30;54931;52.098;21.006;2024-02-21T15:26:02;7.41;85.03
68128;SHT30;54931;52.098;21.006;2024-02-21T15:28:31;7.38;85.07
68128;SHT30;54931;52.098;21.006;2024-02-21T15:30:59;7.38;85.06
68128;SHT30;54931;52.098;21.006;2024-02-21T15:33:27;7.36;85.11
68128;SHT30;54931;52.098;21.006;2024-02-21T15:35:57;7.35;85.11
68128;SHT30;54931;52.098;21.006;2024-02-21T15:38:25;7.34;85.09
68128;SHT30;54931;52.098;21.006;2024-02-21T15:40:53;7.32;85.11
68128;SHT30;54931;52.098;21.006;2024-02-21T15:43:21;7.31;85.11
68128;SHT30;54931;52.098;21.006;2024-02-21T15:45:51;7.32;85.10